sensor_id;sensor_type;location;lat;lon;timestamp;pressure;altitude;pressure_sealevel;temperature;humidity
9969;BME280;5025;48.890;9.278;2023-02-22T00:00:14;98737.53;;;7.67;62.91
9969;BME280;5025;48.890;9.278;2023-02-22T00:02:47;98727.41;;;7.62;63.03
9969;BME280;5025;48.890;9.278;2023-02-22T00:05:14;98727.63;;;7.61;63.10
9969;BME280;5025;48.890;9.278;2023-02-22T00:07:45;98732.78;;;7.56;63.11
9969;BME280;5025;48.890;9.278;2023-02-22T00:10:10;98724.53;;;7.50;63.04
9969;BME280;5025;48.890;9.278;2023-02-22T00:12:41;98724.75;;;7.49;63.48
9969;BME280;5025;48.890;9.278;2023-02-22T00:15:08;98720.38;;;7.48;63.39
9969;BME280;5025;48.890;9.278;2023-02-22T00:17:34;98714.41;;;7.46;63.38
9969;BME280;5025;48.890;9.278;2023-02-22T00:19:59;98715.66;;;7.43;63.48
9969;BME280;5025;48.890;9.278;2023-02-22T00:22:25;98714.84;;;7.43;63.71
9969;BME280;5025;48.890;9.278;2023-02-22T00:24:50;98717.72;;;7.41;63.61
9969;BME280;5025;48.890;9.278;2023-02-22T00:27:15;98713.59;;;7.39;63.77
9969;BME280;5025;48.890;9.278;2023-02-22T00:29:45;98714.00;;;7.35;63.94
9969;BME280;5025;48.890;9.278;2023-02-22T00:32:11;98714.44;;;7.32;63.88
9969;BME280;5025;48.890;9.278;2023-02-22T00:34:36;98714.03;;;7.29;63.95
9969;BME280;5025;48.890;9.278;2023-02-22T00:37:01;98715.91;;;7.28;63.96
9969;BME280;5025;48.890;9.278;2023-02-22T00:39:31;98708.25;;;7.25;63.98
9969;BME280;5025;48.890;9.278;2023-02-22T00:41:56;98706.00;;;7.22;64.02
9969;BME280;5025;48.890;9.278;2023-02-22T00:44:22;98701.66;;;7.21;64.26
9969;BME280;5025;48.890;9.278;2023-02-22T00:46:47;98709.09;;;7.19;64.21
9969;BME280;5025;48.890;9.278;2023-02-22T00:49:14;98712.81;;;7.18;64.24
9969;BME280;5025;48.890;9.278;2023-02-22T00:51:39;98715.69;;;7.16;64.28
9969;BME280;5025;48.890;9.278;2023-02-22T00:54:04;98720.66;;;7.13;64.34
9969;BME280;5025;48.890;9.278;2023-02-22T00:56:32;98710.34;;;7.10;64.28
9969;BME280;5025;48.890;9.278;2023-02-22T00:58:58;98714.06;;;7.09;64.32
9969;BME280;5025;48.890;9.278;2023-02-22T01:01:25;98710.31;;;7.03;64.45
9969;BME280;5025;48.890;9.278;2023-02-22T01:03:50;98706.22;;;7.00;64.48
9969;BME280;5025;48.890;9.278;2023-02-22T01:06:15;98703.94;;;6.97;64.47
9969;BME280;5025;48.890;9.278;2023-02-22T01:08:43;98701.88;;;6.93;64.58
9969;BME280;5025;48.890;9.278;2023-02-22T01:11:09;98701.03;;;6.92;64.62
9969;BME280;5025;48.890;9.278;2023-02-22T01:13:34;98685.34;;;6.89;64.78
9969;BME280;5025;48.890;9.278;2023-02-22T01:15:59;98688.03;;;6.89;64.84
9969;BME280;5025;48.890;9.278;2023-02-22T01:18:25;98679.97;;;6.89;64.51
9969;BME280;5025;48.890;9.278;2023-02-22T01:20:50;98686.41;;;6.88;64.79
9969;BME280;5025;48.890;9.278;2023-02-22T01:23:15;98681.44;;;6.85;64.82
9969;BME280;5025;48.890;9.278;2023-02-22T01:25:41;98681.66;;;6.84;64.98
9969;BME280;5025;48.890;9.278;2023-02-22T01:28:07;98675.84;;;6.73;65.14
9969;BME280;5025;48.890;9.278;2023-02-22T01:30:34;98680.81;;;6.63;65.50
9969;BME280;5025;48.890;9.278;2023-02-22T01:33:02;98672.97;;;6.61;65.63
9969;BME280;5025;48.890;9.278;2023-02-22T01:35:30;98667.59;;;6.61;65.63
9969;BME280;5025;48.890;9.278;2023-02-22T01:37:56;98670.28;;;6.61;65.59
9969;BME280;5025;48.890;9.278;2023-02-22T01:40:28;98667.78;;;6.60;65.59
9969;BME280;5025;48.890;9.278;2023-02-22T01:42:56;98670.72;;;6.58;65.77
9969;BME280;5025;48.890;9.278;2023-02-22T01:48:02;98673.19;;;6.40;66.03
9969;BME280;5025;48.890;9.278;2023-02-22T01:50:29;98669.44;;;6.34;66.03
9969;BME280;5025;48.890;9.278;2023-02-22T01:52:56;98662.00;;;6.30;66.12
9969;BME280;5025;48.890;9.278;2023-02-22T01:55:21;98667.16;;;6.24;66.28
9969;BME280;5025;48.890;9.278;2023-02-22T01:57:47;98656.44;;;6.24;66.29
9969;BME280;5025;48.890;9.278;2023-02-22T02:00:15;98654.38;;;6.20;66.19
9969;BME280;5025;48.890;9.278;2023-02-22T02:02:51;98658.28;;;6.17;66.45
9969;BME280;5025;48.890;9.278;2023-02-22T02:05:20;98656.63;;;6.16;66.54
9969;BME280;5025;48.890;9.278;2023-02-22T02:07:48;98647.56;;;6.17;66.62
9969;BME280;5025;48.890;9.278;2023-02-22T02:10:14;98638.28;;;6.20;66.82
9969;BME280;5025;48.890;9.278;2023-02-22T02:12:42;98643.03;;;6.24;66.71
9969;BME280;5025;48.890;9.278;2023-02-22T02:15:21;98644.66;;;6.25;66.89
9969;BME280;5025;48.890;9.278;2023-02-22T02:17:48;98639.31;;;6.25;66.99
9969;BME280;5025;48.890;9.278;2023-02-22T02:34:33;98618.66;;;6.19;67.31
9969;BME280;5025;48.890;9.278;2023-02-22T02:37:18;98618.66;;;6.19;67.43
9969;BME280;5025;48.890;9.278;2023-02-22T02:39:52;98607.94;;;6.19;67.56
9969;BME280;5025;48.890;9.278;2023-02-22T02:42:22;98606.09;;;6.20;67.48
9969;BME280;5025;48.890;9.278;2023-02-22T02:45:01;98610.41;;;6.21;67.69
9969;BME280;5025;48.890;9.278;2023-02-22T02:47:31;98608.78;;;6.20;67.71
9969;BME280;5025;48.890;9.278;2023-02-22T02:50:05;98601.56;;;6.20;67.86
9969;BME280;5025;48.890;9.278;2023-02-22T02:52:32;98597.88;;;6.21;67.78
9969;BME280;5025;48.890;9.278;2023-02-22T02:54:59;98603.84;;;6.17;67.89
9969;BME280;5025;48.890;9.278;2023-02-22T02:57:26;98598.47;;;6.17;67.92
9969;BME280;5025;48.890;9.278;2023-02-22T02:59:52;98597.84;;;6.15;67.99
9969;BME280;5025;48.890;9.278;2023-02-22T03:10:31;98585.25;;;6.02;68.21
9969;BME280;5025;48.890;9.278;2023-02-22T03:13:14;98588.53;;;6.04;68.28
9969;BME280;5025;48.890;9.278;2023-02-22T03:21:09;98581.31;;;5.98;68.24
9969;BME280;5025;48.890;9.278;2023-02-22T03:24:38;98578.00;;;5.96;68.40
9969;BME280;5025;48.890;9.278;2023-02-22T03:29:44;98572.63;;;5.96;68.41
9969;BME280;5025;48.890;9.278;2023-02-22T03:32:15;98567.69;;;5.92;68.41
9969;BME280;5025;48.890;9.278;2023-02-22T03:34:48;98565.81;;;5.93;68.55
9969;BME280;5025;48.890;9.278;2023-02-22T03:37:19;98566.66;;;5.93;68.72
9969;BME280;5025;48.890;9.278;2023-02-22T03:39:48;98565.00;;;5.92;68.80
9969;BME280;5025;48.890;9.278;2023-02-22T03:42:20;98567.06;;;5.90;68.59
9969;BME280;5025;48.890;9.278;2023-02-22T03:44:48;98568.09;;;5.89;68.79
9969;BME280;5025;48.890;9.278;2023-02-22T03:47:19;98570.75;;;5.89;68.82
9969;BME280;5025;48.890;9.278;2023-02-22T03:49:59;98570.16;;;5.87;68.82
9969;BME280;5025;48.890;9.278;2023-02-22T03:52:32;98573.25;;;5.84;68.80
9969;BME280;5025;48.890;9.278;2023-02-22T03:54:59;98571.56;;;5.83;69.09
9969;BME280;5025;48.890;9.278;2023-02-22T03:57:27;98569.50;;;5.85;68.93
9969;BME280;5025;48.890;9.278;2023-02-22T03:59:54;98567.25;;;5.82;68.86
9969;BME280;5025;48.890;9.278;2023-02-22T04:02:19;98574.66;;;5.80;69.00
9969;BME280;5025;48.890;9.278;2023-02-22T04:04:47;98574.88;;;5.79;68.88
9969;BME280;5025;48.890;9.278;2023-02-22T04:07:13;98575.88;;;5.78;69.04
9969;BME280;5025;48.890;9.278;2023-02-22T04:09:39;98567.03;;;5.77;69.23
9969;BME280;5025;48.890;9.278;2023-02-22T04:12:04;98574.06;;;5.78;69.24
9969;BME280;5025;48.890;9.278;2023-02-22T04:14:30;98569.31;;;5.80;69.24
9969;BME280;5025;48.890;9.278;2023-02-22T04:16:55;98573.84;;;5.80;69.40
9969;BME280;5025;48.890;9.278;2023-02-22T04:19:20;98568.69;;;5.78;69.58
9969;BME280;5025;48.890;9.278;2023-02-22T04:21:46;98561.69;;;5.77;69.65
9969;BME280;5025;48.890;9.278;2023-02-22T04:24:12;98562.50;;;5.78;69.83
9969;BME280;5025;48.890;9.278;2023-02-22T04:26:37;98564.16;;;5.72;70.02
9969;BME280;5025;48.890;9.278;2023-02-22T04:29:03;98556.72;;;5.74;69.96
9969;BME280;5025;48.890;9.278;2023-02-22T04:31:29;98563.75;;;5.75;69.92
9969;BME280;5025;48.890;9.278;2023-02-22T04:33:54;98557.94;;;5.71;70.13
9969;BME280;5025;48.890;9.278;2023-02-22T04:36:20;98560.41;;;5.73;69.96
9969;BME280;5025;48.890;9.278;2023-02-22T04:38:46;98565.56;;;5.74;70.19
9969;BME280;5025;48.890;9.278;2023-02-22T04:41:11;98563.75;;;5.75;70.15
9969;BME280;5025;48.890;9.278;2023-02-22T04:43:36;98560.41;;;5.73;70.13
9969;BME280;5025;48.890;9.278;2023-02-22T04:46:02;98559.00;;;5.70;70.33
9969;BME280;5025;48.890;9.278;2023-02-22T04:48:28;98554.44;;;5.71;70.42
9969;BME280;5025;48.890;9.278;2023-02-22T04:50:54;98551.78;;;5.71;70.35
9969;BME280;5025;48.890;9.278;2023-02-22T04:53:19;98558.16;;;5.70;70.46
9969;BME280;5025;48.890;9.278;2023-02-22T04:55:44;98557.94;;;5.71;70.53
9969;BME280;5025;48.890;9.278;2023-02-22T04:58:10;98554.44;;;5.71;70.41
9969;BME280;5025;48.890;9.278;2023-02-22T05:00:35;98555.47;;;5.70;70.67
9969;BME280;5025;48.890;9.278;2023-02-22T05:03:00;98542.28;;;5.68;70.50
9969;BME280;5025;48.890;9.278;2023-02-22T05:05:26;98551.97;;;5.69;70.71
9969;BME280;5025;48.890;9.278;2023-02-22T05:07:51;98545.56;;;5.64;70.67
9969;BME280;5025;48.890;9.278;2023-02-22T05:10:17;98541.25;;;5.63;70.81
9969;BME280;5025;48.890;9.278;2023-02-22T05:12:43;98542.25;;;5.62;70.85
9969;BME280;5025;48.890;9.278;2023-02-22T05:15:09;98538.34;;;5.57;70.96
9969;BME280;5025;48.890;9.278;2023-02-22T05:17:35;98541.41;;;5.54;71.04
9969;BME280;5025;48.890;9.278;2023-02-22T05:20:01;98538.13;;;5.52;71.17
9969;BME280;5025;48.890;9.278;2023-02-22T05:22:27;98536.47;;;5.51;71.18
9969;BME280;5025;48.890;9.278;2023-02-22T05:24:52;98540.19;;;5.50;71.43
9969;BME280;5025;48.890;9.278;2023-02-22T05:27:18;98540.19;;;5.50;71.37
9969;BME280;5025;48.890;9.278;2023-02-22T05:29:44;98539.13;;;5.51;71.34
9969;BME280;5025;48.890;9.278;2023-02-22T05:32:09;98533.16;;;5.49;71.36
9969;BME280;5025;48.890;9.278;2023-02-22T05:34:36;98531.91;;;5.45;71.45
9969;BME280;5025;48.890;9.278;2023-02-22T05:37:01;98529.03;;;5.40;71.69
9969;BME280;5025;48.890;9.278;2023-02-22T05:39:28;98526.53;;;5.38;71.65
9969;BME280;5025;48.890;9.278;2023-02-22T05:41:54;98529.63;;;5.35;71.68
9969;BME280;5025;48.890;9.278;2023-02-22T05:44:19;98520.97;;;5.33;71.89
9969;BME280;5025;48.890;9.278;2023-02-22T05:46:45;98517.03;;;5.29;71.98
9969;BME280;5025;48.890;9.278;2023-02-22T05:49:10;98532.50;;;5.27;71.93
9969;BME280;5025;48.890;9.278;2023-02-22T05:51:35;98531.03;;;5.25;72.07
9969;BME280;5025;48.890;9.278;2023-02-22T05:54:01;98534.09;;;5.21;71.90
9969;BME280;5025;48.890;9.278;2023-02-22T05:56:27;98532.69;;;5.19;72.23
9969;BME280;5025;48.890;9.278;2023-02-22T05:58:54;98535.56;;;5.17;72.29
9969;BME280;5025;48.890;9.278;2023-02-22T06:01:20;98527.06;;;5.14;72.26
9969;BME280;5025;48.890;9.278;2023-02-22T06:03:49;98532.63;;;5.12;72.13
9969;BME280;5025;48.890;9.278;2023-02-22T06:06:15;98529.53;;;5.09;72.42
9969;BME280;5025;48.890;9.278;2023-02-22T06:08:41;98523.56;;;5.07;72.52
9969;BME280;5025;48.890;9.278;2023-02-22T06:11:07;98527.69;;;5.09;72.46
9969;BME280;5025;48.890;9.278;2023-02-22T06:13:34;98530.34;;;5.09;72.48
9969;BME280;5025;48.890;9.278;2023-02-22T06:15:59;98525.84;;;5.10;72.62
9969;BME280;5025;48.890;9.278;2023-02-22T06:18:24;98535.31;;;5.12;72.63
9969;BME280;5025;48.890;9.278;2023-02-22T06:20:50;98531.63;;;5.13;72.68
9969;BME280;5025;48.890;9.278;2023-02-22T06:23:16;98528.94;;;5.13;72.66
9969;BME280;5025;48.890;9.278;2023-02-22T06:25:41;98531.41;;;5.15;72.81
9969;BME280;5025;48.890;9.278;2023-02-22T06:28:06;98531.84;;;5.18;72.69
9969;BME280;5025;48.890;9.278;2023-02-22T06:30:32;98536.56;;;5.16;72.80
9969;BME280;5025;48.890;9.278;2023-02-22T06:32:57;98534.91;;;5.15;72.96
9969;BME280;5025;48.890;9.278;2023-02-22T06:35:22;98531.03;;;5.18;73.18
9969;BME280;5025;48.890;9.278;2023-02-22T06:37:48;98542.34;;;5.20;73.15
9969;BME280;5025;48.890;9.278;2023-02-22T06:40:13;98539.63;;;5.07;73.40
9969;BME280;5025;48.890;9.278;2023-02-22T06:42:39;98546.56;;;4.94;73.93
9969;BME280;5025;48.890;9.278;2023-02-22T06:45:05;98540.38;;;4.94;73.90
9969;BME280;5025;48.890;9.278;2023-02-22T06:47:31;98554.00;;;4.99;73.98
9969;BME280;5025;48.890;9.278;2023-02-22T06:49:58;98547.41;;;5.01;73.80
9969;BME280;5025;48.890;9.278;2023-02-22T06:52:24;98547.81;;;4.98;73.87
9969;BME280;5025;48.890;9.278;2023-02-22T06:54:49;98552.34;;;4.98;74.05
9969;BME280;5025;48.890;9.278;2023-02-22T06:57:15;98554.00;;;4.99;73.71
9969;BME280;5025;48.890;9.278;2023-02-22T06:59:40;98559.34;;;4.99;73.92
9969;BME280;5025;48.890;9.278;2023-02-22T07:02:05;98561.44;;;5.03;73.67
9969;BME280;5025;48.890;9.278;2023-02-22T07:04:31;98555.88;;;5.05;73.70
9969;BME280;5025;48.890;9.278;2023-02-22T07:06:56;98555.28;;;5.10;73.62
9969;BME280;5025;48.890;9.278;2023-02-22T07:09:21;98561.06;;;5.13;73.46
9969;BME280;5025;48.890;9.278;2023-02-22T07:11:47;98560.03;;;5.14;73.45
9969;BME280;5025;48.890;9.278;2023-02-22T07:14:12;98558.00;;;5.16;73.42
9969;BME280;5025;48.890;9.278;2023-02-22T07:16:40;98565.63;;;5.19;73.55
9969;BME280;5025;48.890;9.278;2023-02-22T07:19:05;98555.53;;;5.21;73.52
9969;BME280;5025;48.890;9.278;2023-02-22T07:21:30;98561.13;;;5.27;73.43
9969;BME280;5025;48.890;9.278;2023-02-22T07:23:56;98564.41;;;5.29;73.59
9969;BME280;5025;48.890;9.278;2023-02-22T07:26:23;98568.72;;;5.30;73.63
9969;BME280;5025;48.890;9.278;2023-02-22T07:28:49;98568.13;;;5.34;73.64
9969;BME280;5025;48.890;9.278;2023-02-22T07:31:14;98568.56;;;5.38;73.51
9969;BME280;5025;48.890;9.278;2023-02-22T07:33:40;98570.00;;;5.34;73.60
9969;BME280;5025;48.890;9.278;2023-02-22T07:36:06;98578.22;;;5.32;73.93
9969;BME280;5025;48.890;9.278;2023-02-22T07:38:31;98574.94;;;5.37;73.89
9969;BME280;5025;48.890;9.278;2023-02-22T07:40:57;98577.03;;;5.42;73.75
9969;BME280;5025;48.890;9.278;2023-02-22T07:43:24;98576.44;;;5.46;73.65
9969;BME280;5025;48.890;9.278;2023-02-22T07:45:51;98578.69;;;5.49;73.65
9969;BME280;5025;48.890;9.278;2023-02-22T07:48:18;98577.47;;;5.52;73.67
9969;BME280;5025;48.890;9.278;2023-02-22T07:50:45;98577.28;;;5.53;73.67
9969;BME280;5025;48.890;9.278;2023-02-22T07:53:13;98577.28;;;5.60;73.58
9969;BME280;5025;48.890;9.278;2023-02-22T07:55:39;98568.44;;;5.60;73.64
9969;BME280;5025;48.890;9.278;2023-02-22T07:58:06;98575.47;;;5.67;73.49
9969;BME280;5025;48.890;9.278;2023-02-22T08:00:37;98576.28;;;5.74;73.62
9969;BME280;5025;48.890;9.278;2023-02-22T08:03:05;98572.59;;;5.82;73.44
9969;BME280;5025;48.890;9.278;2023-02-22T08:05:32;98567.28;;;5.89;73.46
9969;BME280;5025;48.890;9.278;2023-02-22T08:07:57;98575.50;;;5.94;73.33
9969;BME280;5025;48.890;9.278;2023-02-22T08:10:24;98572.25;;;5.99;73.31
9969;BME280;5025;48.890;9.278;2023-02-22T08:12:50;98568.75;;;6.05;73.37
9969;BME280;5025;48.890;9.278;2023-02-22T08:15:22;98571.22;;;6.13;73.32
9969;BME280;5025;48.890;9.278;2023-02-22T08:17:48;98575.34;;;6.22;73.36
9969;BME280;5025;48.890;9.278;2023-02-22T08:20:14;98571.44;;;6.25;73.24
9969;BME280;5025;48.890;9.278;2023-02-22T08:22:42;98563.19;;;6.33;73.30
9969;BME280;5025;48.890;9.278;2023-02-22T08:25:08;98563.41;;;6.38;73.12
9969;BME280;5025;48.890;9.278;2023-02-22T08:27:33;98564.41;;;6.44;73.06
9969;BME280;5025;48.890;9.278;2023-02-22T08:29:58;98570.00;;;6.49;73.09
9969;BME280;5025;48.890;9.278;2023-02-22T08:32:24;98571.66;;;6.43;73.31
9969;BME280;5025;48.890;9.278;2023-02-22T08:34:49;98564.22;;;6.45;73.77
9969;BME280;5025;48.890;9.278;2023-02-22T08:37:15;98561.75;;;6.44;73.91
9969;BME280;5025;48.890;9.278;2023-02-22T08:39:42;98567.34;;;6.49;74.20
9969;BME280;5025;48.890;9.278;2023-02-22T08:42:07;98563.41;;;6.58;73.93
9969;BME280;5025;48.890;9.278;2023-02-22T08:44:34;98574.94;;;6.66;73.84
9969;BME280;5025;48.890;9.278;2023-02-22T08:46:59;98567.47;;;6.68;73.88
9969;BME280;5025;48.890;9.278;2023-02-22T08:49:24;98575.97;;;6.71;73.61
9969;BME280;5025;48.890;9.278;2023-02-22T08:51:49;98562.91;;;6.81;73.82
9969;BME280;5025;48.890;9.278;2023-02-22T08:54:15;98567.88;;;6.85;73.71
9969;BME280;5025;48.890;9.278;2023-02-22T08:56:41;98570.34;;;6.93;73.76
9969;BME280;5025;48.890;9.278;2023-02-22T08:59:07;98569.09;;;7.02;73.55
9969;BME280;5025;48.890;9.278;2023-02-22T09:01:32;98567.59;;;7.06;73.35
9969;BME280;5025;48.890;9.278;2023-02-22T09:03:58;98566.97;;;7.17;73.32
9969;BME280;5025;48.890;9.278;2023-02-22T09:06:24;98570.22;;;7.26;73.14
9969;BME280;5025;48.890;9.278;2023-02-22T09:08:49;98565.22;;;7.36;72.92
9969;BME280;5025;48.890;9.278;2023-02-22T09:11:14;98567.25;;;7.48;72.76
9969;BME280;5025;48.890;9.278;2023-02-22T09:13:40;98555.00;;;7.59;72.29
9969;BME280;5025;48.890;9.278;2023-02-22T09:16:05;98557.22;;;7.68;72.32
9969;BME280;5025;48.890;9.278;2023-02-22T09:18:30;98559.22;;;7.80;72.02
9969;BME280;5025;48.890;9.278;2023-02-22T09:20:56;98556.91;;;7.90;72.08
9969;BME280;5025;48.890;9.278;2023-02-22T09:23:22;98560.69;;;8.07;71.69
9969;BME280;5025;48.890;9.278;2023-02-22T09:25:48;98561.41;;;8.21;71.34
9969;BME280;5025;48.890;9.278;2023-02-22T09:28:13;98558.81;;;8.33;71.23
9969;BME280;5025;48.890;9.278;2023-02-22T09:30:39;98553.19;;;8.41;70.84
9969;BME280;5025;48.890;9.278;2023-02-22T09:33:17;98548.75;;;8.54;70.63
9969;BME280;5025;48.890;9.278;2023-02-22T09:35:44;98553.06;;;8.55;70.24
9969;BME280;5025;48.890;9.278;2023-02-22T09:38:16;98554.22;;;8.40;69.72
9969;BME280;5025;48.890;9.278;2023-02-22T09:40:53;98551.91;;;8.51;69.67
9969;BME280;5025;48.890;9.278;2023-02-22T09:48:57;98549.31;;;8.81;68.93
9969;BME280;5025;48.890;9.278;2023-02-22T09:51:32;98543.88;;;8.88;68.73
9969;BME280;5025;48.890;9.278;2023-02-22T09:54:02;98544.56;;;9.02;68.69
9969;BME280;5025;48.890;9.278;2023-02-22T09:56:28;98532.56;;;9.16;68.36
9969;BME280;5025;48.890;9.278;2023-02-22T09:58:59;98537.09;;;9.34;68.19
9969;BME280;5025;48.890;9.278;2023-02-22T10:01:31;98533.78;;;9.50;67.88
9969;BME280;5025;48.890;9.278;2023-02-22T10:06:51;98529.38;;;9.68;67.43
9969;BME280;5025;48.890;9.278;2023-02-22T10:09:22;98522.31;;;9.85;66.94
9969;BME280;5025;48.890;9.278;2023-02-22T10:11:57;98528.56;;;9.98;66.84
9969;BME280;5025;48.890;9.278;2023-02-22T10:17:14;98525.66;;;10.23;66.31
9969;BME280;5025;48.890;9.278;2023-02-22T10:25:29;98517.94;;;10.74;65.28
9969;BME280;5025;48.890;9.278;2023-02-22T10:30:37;98510.69;;;11.15;64.32
9969;BME280;5025;48.890;9.278;2023-02-22T10:33:19;98507.25;;;11.32;64.08
9969;BME280;5025;48.890;9.278;2023-02-22T10:35:45;98508.75;;;11.39;63.83
9969;BME280;5025;48.890;9.278;2023-02-22T10:41:17;98498.47;;;11.53;63.46
9969;BME280;5025;48.890;9.278;2023-02-22T10:43:44;98491.28;;;11.59;63.38
9969;BME280;5025;48.890;9.278;2023-02-22T10:46:13;98496.03;;;11.69;62.93
9969;BME280;5025;48.890;9.278;2023-02-22T10:48:41;98506.56;;;11.82;62.66
9969;BME280;5025;48.890;9.278;2023-02-22T10:51:09;98502.16;;;11.93;62.50
9969;BME280;5025;48.890;9.278;2023-02-22T10:53:36;98498.72;;;11.97;62.22
9969;BME280;5025;48.890;9.278;2023-02-22T10:56:08;98489.72;;;12.09;61.94
9969;BME280;5025;48.890;9.278;2023-02-22T10:59:02;98488.97;;;12.13;61.64
9969;BME280;5025;48.890;9.278;2023-02-22T11:06:22;98484.88;;;12.11;61.07
9969;BME280;5025;48.890;9.278;2023-02-22T11:08:48;98483.66;;;12.18;60.69
9969;BME280;5025;48.890;9.278;2023-02-22T11:11:33;98475.94;;;12.27;60.39
9969;BME280;5025;48.890;9.278;2023-02-22T11:13:59;98473.63;;;12.36;60.25
9969;BME280;5025;48.890;9.278;2023-02-22T11:16:37;98481.97;;;12.51;60.02
9969;BME280;5025;48.890;9.278;2023-02-22T11:19:21;98473.56;;;12.70;59.82
9969;BME280;5025;48.890;9.278;2023-02-22T11:21:52;98478.38;;;12.85;59.38
9969;BME280;5025;48.890;9.278;2023-02-22T11:24:21;98468.22;;;12.97;58.82
9969;BME280;5025;48.890;9.278;2023-02-22T11:26:59;98466.47;;;12.86;57.38
9969;BME280;5025;48.890;9.278;2023-02-22T11:29:29;98465.97;;;12.89;57.30
9969;BME280;5025;48.890;9.278;2023-02-22T11:32:09;98461.66;;;12.93;57.23
9969;BME280;5025;48.890;9.278;2023-02-22T11:34:38;98454.28;;;12.88;56.47
9969;BME280;5025;48.890;9.278;2023-02-22T11:37:31;98455.94;;;12.89;55.67
9969;BME280;5025;48.890;9.278;2023-02-22T11:40:20;98448.41;;;12.74;53.69
9969;BME280;5025;48.890;9.278;2023-02-22T11:43:05;98450.25;;;12.91;54.09
9969;BME280;5025;48.890;9.278;2023-02-22T11:45:33;98450.44;;;13.06;53.91
9969;BME280;5025;48.890;9.278;2023-02-22T11:48:00;98444.78;;;13.08;53.18
9969;BME280;5025;48.890;9.278;2023-02-22T11:50:29;98447.31;;;13.20;53.08
9969;BME280;5025;48.890;9.278;2023-02-22T11:55:59;98436.56;;;13.25;52.07
9969;BME280;5025;48.890;9.278;2023-02-22T12:01:10;98426.88;;;13.61;51.75
9969;BME280;5025;48.890;9.278;2023-02-22T12:09:19;98415.59;;;14.07;51.41
9969;BME280;5025;48.890;9.278;2023-02-22T12:12:03;98412.28;;;14.00;51.14
9969;BME280;5025;48.890;9.278;2023-02-22T12:17:34;98409.88;;;14.04;51.10
9969;BME280;5025;48.890;9.278;2023-02-22T12:20:14;98402.63;;;14.14;51.23
9969;BME280;5025;48.890;9.278;2023-02-22T12:26:09;98405.38;;;14.25;51.13
9969;BME280;5025;48.890;9.278;2023-02-22T12:28:40;98395.38;;;14.25;51.58
9969;BME280;5025;48.890;9.278;2023-02-22T12:31:21;98393.53;;;14.41;51.52
9969;BME280;5025;48.890;9.278;2023-02-22T12:33:52;98396.59;;;14.55;51.53
9969;BME280;5025;48.890;9.278;2023-02-22T12:36:27;98396.88;;;14.59;51.16
9969;BME280;5025;48.890;9.278;2023-02-22T12:39:02;98399.06;;;14.57;51.54
9969;BME280;5025;48.890;9.278;2023-02-22T12:41:36;98395.81;;;14.60;51.44
9969;BME280;5025;48.890;9.278;2023-02-22T12:44:13;98394.97;;;14.59;51.68
9969;BME280;5025;48.890;9.278;2023-02-22T12:46:50;98396.34;;;14.57;51.62
9969;BME280;5025;48.890;9.278;2023-02-22T12:49:41;98386.53;;;14.50;51.68
9969;BME280;5025;48.890;9.278;2023-02-22T12:52:14;98383.75;;;14.40;52.00
9969;BME280;5025;48.890;9.278;2023-02-22T12:57:41;98387.66;;;14.12;52.03
9969;BME280;5025;48.890;9.278;2023-02-22T13:00:19;98387.59;;;14.02;52.11
9969;BME280;5025;48.890;9.278;2023-02-22T13:03:02;98377.97;;;13.84;52.51
9969;BME280;5025;48.890;9.278;2023-02-22T13:08:53;98379.03;;;13.83;52.57
9969;BME280;5025;48.890;9.278;2023-02-22T13:11:26;98381.34;;;14.01;52.31
9969;BME280;5025;48.890;9.278;2023-02-22T13:16:46;98377.00;;;14.53;52.05
9969;BME280;5025;48.890;9.278;2023-02-22T13:19:32;98368.94;;;14.63;52.33
9969;BME280;5025;48.890;9.278;2023-02-22T13:22:09;98378.00;;;14.90;51.92
9969;BME280;5025;48.890;9.278;2023-02-22T13:24:44;98365.03;;;15.22;51.75
9969;BME280;5025;48.890;9.278;2023-02-22T13:27:18;98369.16;;;15.66;51.29
9969;BME280;5025;48.890;9.278;2023-02-22T13:29:47;98373.53;;;16.08;50.64
9969;BME280;5025;48.890;9.278;2023-02-22T13:46:20;98346.47;;;17.43;48.19
9969;BME280;5025;48.890;9.278;2023-02-22T13:51:51;98348.94;;;17.73;47.60
9969;BME280;5025;48.890;9.278;2023-02-22T13:54:41;98349.09;;;17.87;46.96
9969;BME280;5025;48.890;9.278;2023-02-22T13:57:31;98348.81;;;17.94;46.65
9969;BME280;5025;48.890;9.278;2023-02-22T14:03:06;98355.09;;;17.95;45.98
9969;BME280;5025;48.890;9.278;2023-02-22T14:05:52;98346.03;;;17.99;45.78
9969;BME280;5025;48.890;9.278;2023-02-22T14:10:46;98343.00;;;18.01;44.88
9969;BME280;5025;48.890;9.278;2023-02-22T14:13:13;98352.94;;;17.91;45.00
9969;BME280;5025;48.890;9.278;2023-02-22T14:18:25;98344.75;;;17.52;44.14
9969;BME280;5025;48.890;9.278;2023-02-22T14:21:04;98346.19;;;17.05;44.70
9969;BME280;5025;48.890;9.278;2023-02-22T14:28:49;98341.72;;;16.69;45.83
9969;BME280;5025;48.890;9.278;2023-02-22T14:31:18;98345.88;;;16.51;46.16
9969;BME280;5025;48.890;9.278;2023-02-22T14:33:57;98344.28;;;16.40;46.38
9969;BME280;5025;48.890;9.278;2023-02-22T14:36:37;98350.06;;;16.23;46.70
9969;BME280;5025;48.890;9.278;2023-02-22T14:39:12;98348.75;;;15.84;47.04
9969;BME280;5025;48.890;9.278;2023-02-22T14:41:41;98353.38;;;15.73;47.28
9969;BME280;5025;48.890;9.278;2023-02-22T14:44:09;98356.91;;;15.69;47.52
9969;BME280;5025;48.890;9.278;2023-02-22T14:46:39;98340.59;;;15.64;47.55
9969;BME280;5025;48.890;9.278;2023-02-22T14:49:10;98349.28;;;15.50;47.99
9969;BME280;5025;48.890;9.278;2023-02-22T14:51:49;98346.56;;;15.35;48.48
9969;BME280;5025;48.890;9.278;2023-02-22T14:54:27;98346.28;;;15.31;48.60
9969;BME280;5025;48.890;9.278;2023-02-22T14:57:01;98354.19;;;15.33;48.56
9969;BME280;5025;48.890;9.278;2023-02-22T14:59:45;98348.19;;;15.31;48.90
9969;BME280;5025;48.890;9.278;2023-02-22T15:02:13;98346.56;;;15.24;49.04
9969;BME280;5025;48.890;9.278;2023-02-22T15:04:39;98353.63;;;15.20;49.02
9969;BME280;5025;48.890;9.278;2023-02-22T15:09:52;98351.41;;;15.07;49.69
9969;BME280;5025;48.890;9.278;2023-02-22T15:12:28;98349.50;;;15.02;49.92
9969;BME280;5025;48.890;9.278;2023-02-22T15:15:18;98350.56;;;14.96;50.08
9969;BME280;5025;48.890;9.278;2023-02-22T15:17:47;98347.31;;;14.89;50.13
9969;BME280;5025;48.890;9.278;2023-02-22T15:20:15;98351.38;;;14.86;50.33
9969;BME280;5025;48.890;9.278;2023-02-22T15:22:41;98354.88;;;14.82;50.45
9969;BME280;5025;48.890;9.278;2023-02-22T15:25:07;98355.16;;;14.75;50.58
9969;BME280;5025;48.890;9.278;2023-02-22T15:27:34;98354.56;;;14.68;50.99
9969;BME280;5025;48.890;9.278;2023-02-22T15:30:04;98349.13;;;14.63;51.17
9969;BME280;5025;48.890;9.278;2023-02-22T15:32:33;98346.06;;;14.59;51.38
9969;BME280;5025;48.890;9.278;2023-02-22T15:35:20;98350.19;;;14.62;51.61
9969;BME280;5025;48.890;9.278;2023-02-22T15:38:04;98347.47;;;14.67;51.54
9969;BME280;5025;48.890;9.278;2023-02-22T15:40:31;98350.25;;;14.72;51.47